createdAt,value
2018-06-12T00:00:43.096Z,9.00
2018-06-12T00:03:12.501Z,8.27
2018-06-12T00:05:41.917Z,8.53
2018-06-12T00:08:11.369Z,7.63
2018-06-12T00:10:40.813Z,8.17
2018-06-12T00:13:10.145Z,9.07
2018-06-12T00:15:39.561Z,8.50
2018-06-12T00:18:08.972Z,9.57
2018-06-12T00:20:38.351Z,8.30
2018-06-12T00:23:07.745Z,9.10
2018-06-12T00:25:37.133Z,9.00
2018-06-12T00:28:06.548Z,9.10
2018-06-12T00:30:35.981Z,10.27
2018-06-12T00:33:05.364Z,9.67
2018-06-12T00:35:34.707Z,8.73
2018-06-12T00:38:04.094Z,10.40
2018-06-12T00:40:33.485Z,9.97
2018-06-12T00:43:02.857Z,10.20
2018-06-12T00:45:32.268Z,9.93
2018-06-12T00:48:01.640Z,10.10
2018-06-12T00:50:31.056Z,10.03
2018-06-12T00:53:00.451Z,10.53
2018-06-12T00:55:29.853Z,10.70
2018-06-12T00:57:59.196Z,11.03
2018-06-12T01:00:28.615Z,9.73
2018-06-12T01:02:58.041Z,10.43
2018-06-12T01:05:27.427Z,10.47
2018-06-12T01:07:56.784Z,9.80
2018-06-12T01:10:26.223Z,10.30
2018-06-12T01:12:55.648Z,10.03
2018-06-12T01:15:25.053Z,11.10
2018-06-12T01:17:54.447Z,10.00
2018-06-12T01:20:23.910Z,11.10
2018-06-12T01:22:53.334Z,11.50
2018-06-12T01:25:22.789Z,11.57
2018-06-12T01:27:52.229Z,11.10
2018-06-12T01:30:22.520Z,10.40
2018-06-12T01:32:51.888Z,11.33
2018-06-12T01:35:21.837Z,10.90
2018-06-12T01:37:51.184Z,12.10
2018-06-12T01:40:20.573Z,12.90
2018-06-12T01:42:50.044Z,11.53
2018-06-12T01:45:19.392Z,11.70
2018-06-12T01:47:48.764Z,12.60
2018-06-12T01:50:18.158Z,11.77
2018-06-12T01:52:47.521Z,12.50
2018-06-12T01:55:16.891Z,12.77
2018-06-12T01:57:46.916Z,12.70
2018-06-12T02:00:16.271Z,12.83
2018-06-12T02:02:45.645Z,13.20
2018-06-12T02:05:15.060Z,13.10
2018-06-12T02:07:44.446Z,13.10
2018-06-12T02:10:13.850Z,13.30
2018-06-12T02:12:43.236Z,14.27
2018-06-12T02:15:12.640Z,14.37
2018-06-12T02:17:41.983Z,13.97
2018-06-12T02:20:11.433Z,14.80
2018-06-12T02:22:40.812Z,14.40
2018-06-12T02:25:10.233Z,15.93
2018-06-12T02:27:39.585Z,16.47
2018-06-12T02:30:08.955Z,17.37
2018-06-12T02:32:38.301Z,18.53
2018-06-12T02:35:07.648Z,18.87
2018-06-12T02:37:37.010Z,19.87
2018-06-12T02:40:06.402Z,21.43
2018-06-12T02:42:35.836Z,23.60
2018-06-12T02:45:05.205Z,23.17
2018-06-12T02:47:34.771Z,24.63
2018-06-12T02:50:04.162Z,23.57
2018-06-12T02:52:33.517Z,23.60
2018-06-12T02:55:03.131Z,24.47
2018-06-12T02:57:32.549Z,26.70
2018-06-12T03:00:01.921Z,23.73
2018-06-12T03:02:31.292Z,26.67
2018-06-12T03:05:00.660Z,25.63
2018-06-12T03:07:30.100Z,26.97
2018-06-12T03:09:59.538Z,26.33
2018-06-12T03:12:28.918Z,27.33
2018-06-12T03:14:58.866Z,26.87
2018-06-12T03:17:28.261Z,27.60
2018-06-12T03:19:59.256Z,26.60
2018-06-12T03:22:28.694Z,28.53
2018-06-12T03:24:58.098Z,28.70
2018-06-12T03:27:27.505Z,27.40
2018-06-12T03:29:57.490Z,29.57
2018-06-12T03:32:26.900Z,29.00
2018-06-12T03:34:56.283Z,27.80
2018-06-12T03:37:25.745Z,26.40
2018-06-12T03:39:55.148Z,26.27
2018-06-12T03:42:24.543Z,27.23
2018-06-12T03:44:53.954Z,27.47
2018-06-12T03:47:23.725Z,25.80
2018-06-12T03:49:53.113Z,28.07
2018-06-12T03:52:24.879Z,26.30
2018-06-12T03:54:54.264Z,25.57
2018-06-12T03:57:23.739Z,25.73
2018-06-12T03:59:53.115Z,26.53
2018-06-12T04:02:22.618Z,27.03
2018-06-12T04:04:51.944Z,26.97
2018-06-12T04:07:21.405Z,27.73
2018-06-12T04:09:50.807Z,26.57
2018-06-12T04:12:20.242Z,27.50
2018-06-12T04:14:49.647Z,27.00
2018-06-12T04:17:19.053Z,27.53
2018-06-12T04:19:48.457Z,26.47
2018-06-12T04:22:17.882Z,26.90
2018-06-12T04:24:47.318Z,26.40
2018-06-12T04:27:16.726Z,26.93
2018-06-12T04:29:46.140Z,27.57
2018-06-12T04:32:15.524Z,26.30
2018-06-12T04:34:45.038Z,26.70
2018-06-12T04:37:14.492Z,25.70
2018-06-12T04:39:43.894Z,26.10
2018-06-12T04:42:13.871Z,25.83
2018-06-12T04:44:43.261Z,27.80
2018-06-12T04:47:12.693Z,25.97
2018-06-12T04:49:42.085Z,27.23
2018-06-12T04:52:11.495Z,28.83
2018-06-12T04:54:41.462Z,28.90
2018-06-12T04:57:10.832Z,28.20
2018-06-12T04:59:40.256Z,27.50
2018-06-12T05:02:09.317Z,25.33
2018-06-12T05:04:38.691Z,29.00
2018-06-12T05:07:08.120Z,25.47
2018-06-12T05:09:37.503Z,28.27
2018-06-12T05:12:07.148Z,28.40
2018-06-12T05:14:36.525Z,27.03
2018-06-12T05:17:05.932Z,26.40
2018-06-12T05:19:35.429Z,27.67
2018-06-12T05:22:04.828Z,25.87
2018-06-12T05:24:34.285Z,27.87
2018-06-12T05:27:03.659Z,25.93
2018-06-12T05:29:33.127Z,24.90
2018-06-12T05:32:02.772Z,23.53
2018-06-12T05:34:35.149Z,24.00
2018-06-12T05:37:04.544Z,24.97
2018-06-12T05:39:33.956Z,24.07
2018-06-12T05:42:03.351Z,24.27
2018-06-12T05:44:32.795Z,25.10
2018-06-12T05:47:02.244Z,24.37
2018-06-12T05:49:32.570Z,24.00
2018-06-12T05:52:01.942Z,22.63
2018-06-12T05:54:31.337Z,22.97
2018-06-12T05:57:00.730Z,24.07
2018-06-12T05:59:30.141Z,23.87
2018-06-12T06:01:59.533Z,24.27
2018-06-12T06:04:28.947Z,24.20
2018-06-12T06:06:58.417Z,24.90
2018-06-12T06:09:27.815Z,22.67
2018-06-12T06:11:57.259Z,23.10
2018-06-12T06:14:26.761Z,22.77
2018-06-12T06:16:56.154Z,23.73
2018-06-12T06:19:25.596Z,22.50
2018-06-12T06:21:54.996Z,22.27
2018-06-12T06:24:24.428Z,22.60
2018-06-12T06:26:53.790Z,20.37
2018-06-12T06:29:23.164Z,19.93
2018-06-12T06:31:52.323Z,19.73
2018-06-12T06:34:21.652Z,19.40
2018-06-12T06:36:51.051Z,19.90
2018-06-12T06:39:20.457Z,20.73
2018-06-12T06:41:49.880Z,21.30
2018-06-12T06:44:19.423Z,19.87
2018-06-12T06:46:48.817Z,19.80
2018-06-12T06:49:18.220Z,18.57
2018-06-12T06:51:48.314Z,18.90
2018-06-12T06:54:17.670Z,18.20
2018-06-12T06:56:47.077Z,19.47
2018-06-12T06:59:16.474Z,19.13
2018-06-12T07:01:45.914Z,20.40
2018-06-12T07:04:15.268Z,20.67
2018-06-12T07:06:44.648Z,18.97
2018-06-12T07:09:14.012Z,18.90
2018-06-12T07:11:43.416Z,17.30
2018-06-12T07:14:12.864Z,17.20
2018-06-12T07:16:42.274Z,17.47
2018-06-12T07:19:11.654Z,16.57
2018-06-12T07:21:41.068Z,16.23
2018-06-12T07:24:10.699Z,19.00
2018-06-12T07:26:40.106Z,16.63
2018-06-12T07:29:09.478Z,15.30
2018-06-12T07:31:38.974Z,14.47
2018-06-12T07:34:08.380Z,15.33
2018-06-12T07:36:37.962Z,15.10
2018-06-12T07:39:09.681Z,15.47
2018-06-12T07:41:39.234Z,15.27
2018-06-12T07:44:08.591Z,15.83
2018-06-12T07:46:38.192Z,15.10
2018-06-12T07:49:07.581Z,15.30
2018-06-12T07:51:37.122Z,15.87
2018-06-12T07:54:06.622Z,15.70
2018-06-12T07:56:36.684Z,16.70
2018-06-12T07:59:06.818Z,14.30
2018-06-12T08:01:36.249Z,15.50
2018-06-12T08:04:05.662Z,16.30
2018-06-12T08:06:35.132Z,15.93
2018-06-12T08:09:06.505Z,21.03
2018-06-12T08:11:36.045Z,17.13
2018-06-12T08:14:05.492Z,17.20
2018-06-12T08:16:34.885Z,17.30
2018-06-12T08:19:04.313Z,17.40
2018-06-12T08:21:33.715Z,15.90
2018-06-12T08:24:03.220Z,16.50
2018-06-12T08:26:32.652Z,17.47
2018-06-12T08:29:02.028Z,18.00
2018-06-12T08:31:31.409Z,18.70
2018-06-12T08:34:00.803Z,17.43
2018-06-12T08:36:30.226Z,19.07
2018-06-12T08:38:59.602Z,19.30
2018-06-12T08:41:29.136Z,22.60
2018-06-12T08:43:58.548Z,21.53
2018-06-12T08:46:28.028Z,18.63
2018-06-12T08:48:57.428Z,19.57
2018-06-12T08:51:26.888Z,17.13
2018-06-12T08:53:56.314Z,18.47
2018-06-12T08:56:25.800Z,17.00
2018-06-12T08:58:55.206Z,18.60
2018-06-12T09:01:24.666Z,19.73
2018-06-12T09:03:54.047Z,17.23
2018-06-12T09:06:23.453Z,16.23
2018-06-12T09:08:52.906Z,16.00
2018-06-12T09:11:22.333Z,19.90
2018-06-12T12:11:15.132Z,16.80
